createdAt,value
2022-08-30T00:01:00.841Z,77.13
2022-08-30T00:03:27.463Z,77.10
2022-08-30T00:05:54.304Z,77.02
2022-08-30T00:08:23.103Z,77.67
2022-08-30T00:10:51.141Z,77.53
2022-08-30T00:13:18.764Z,77.68
2022-08-30T00:15:45.887Z,78.01
2022-08-30T00:18:12.477Z,77.87
2022-08-30T00:20:39.101Z,77.59
2022-08-30T00:23:05.623Z,77.70
2022-08-30T00:25:32.201Z,77.94
2022-08-30T00:27:58.587Z,78.04
2022-08-30T00:30:24.993Z,77.85
2022-08-30T00:32:51.388Z,77.94
2022-08-30T00:35:20.386Z,78.13
2022-08-30T00:37:48.320Z,78.29
2022-08-30T00:40:16.082Z,78.38
2022-08-30T00:42:44.201Z,78.36
2022-08-30T00:45:27.424Z,78.53
2022-08-30T00:47:54.084Z,78.51
2022-08-30T00:50:24.633Z,78.94
2022-08-30T00:52:53.647Z,79.31
2022-08-30T00:55:21.024Z,79.00
2022-08-30T00:57:51.366Z,79.47
2022-08-30T01:00:18.100Z,79.44
2022-08-30T01:02:44.600Z,79.52
2022-08-30T01:05:16.209Z,79.38
2022-08-30T01:07:43.291Z,79.55
2022-08-30T01:10:11.804Z,79.55
2022-08-30T01:12:39.722Z,79.74
2022-08-30T01:15:07.567Z,79.45
2022-08-30T01:17:34.527Z,79.54
2022-08-30T01:20:10.625Z,80.02
2022-08-30T01:22:48.934Z,79.94
2022-08-30T01:25:19.187Z,79.96
2022-08-30T01:28:05.669Z,79.91
2022-08-30T01:30:32.686Z,79.94
2022-08-30T01:33:03.441Z,79.96
2022-08-30T01:35:35.033Z,80.22
2022-08-30T01:38:01.923Z,80.01
2022-08-30T01:40:28.346Z,80.21
2022-08-30T01:42:55.169Z,80.48
2022-08-30T01:45:21.684Z,80.51
2022-08-30T01:47:48.041Z,80.56
2022-08-30T01:50:14.511Z,80.13
2022-08-30T01:52:40.933Z,80.20
2022-08-30T01:55:07.872Z,80.14
2022-08-30T01:57:34.246Z,80.21
2022-08-30T02:00:00.630Z,80.38
2022-08-30T02:02:29.165Z,80.24
2022-08-30T02:04:56.265Z,80.40
2022-08-30T02:07:23.975Z,80.35
2022-08-30T02:09:51.347Z,80.43
2022-08-30T02:12:18.697Z,80.91
2022-08-30T02:14:45.293Z,81.15
2022-08-30T02:17:14.126Z,81.41
2022-08-30T02:19:41.222Z,81.65
2022-08-30T02:22:07.731Z,81.24
2022-08-30T02:24:34.312Z,81.56
2022-08-30T02:27:00.749Z,81.18
2022-08-30T02:29:27.301Z,81.71
2022-08-30T02:31:53.704Z,81.76
2022-08-30T02:34:20.156Z,81.72
2022-08-30T02:36:47.129Z,82.06
2022-08-30T02:39:14.406Z,81.98
2022-08-30T02:41:42.024Z,81.98
2022-08-30T02:44:10.641Z,81.85
2022-08-30T02:46:37.416Z,81.49
2022-08-30T02:49:29.908Z,81.54
2022-08-30T02:51:52.673Z,81.82
2022-08-30T02:54:20.115Z,81.95
2022-08-30T02:56:47.965Z,81.81
2022-08-30T02:59:16.635Z,82.10
2022-08-30T03:01:43.187Z,81.92
2022-08-30T03:04:09.852Z,81.94
2022-08-30T03:06:36.485Z,81.82
2022-08-30T03:09:03.462Z,81.91
2022-08-30T03:11:29.967Z,81.97
2022-08-30T03:13:56.553Z,82.15
2022-08-30T03:16:23.160Z,82.22
2022-08-30T03:18:49.672Z,81.87
2022-08-30T03:21:17.028Z,82.08
2022-08-30T03:23:43.576Z,82.11
2022-08-30T03:26:13.133Z,81.84
2022-08-30T03:28:39.521Z,81.79
2022-08-30T03:31:06.090Z,81.84
2022-08-30T03:33:32.526Z,82.20
2022-08-30T03:35:58.901Z,82.12
2022-08-30T03:38:26.087Z,82.34
2022-08-30T03:40:52.520Z,82.60
2022-08-30T03:43:18.940Z,82.28
2022-08-30T03:45:46.123Z,82.03
2022-08-30T03:48:12.991Z,82.22
2022-08-30T03:50:40.443Z,82.22
2022-08-30T03:53:06.861Z,82.29
2022-08-30T03:55:33.293Z,82.33
2022-08-30T03:57:59.704Z,82.65
2022-08-30T04:00:26.383Z,82.85
2022-08-30T04:02:52.768Z,82.84
2022-08-30T04:05:20.064Z,82.80
2022-08-30T04:07:46.515Z,82.71
2022-08-30T04:10:13.010Z,82.86
2022-08-30T04:12:39.377Z,83.02
2022-08-30T04:15:06.428Z,83.20
2022-08-30T04:17:32.805Z,83.17
2022-08-30T04:19:59.180Z,83.27
2022-08-30T04:22:25.570Z,83.46
2022-08-30T04:24:51.985Z,83.28
2022-08-30T04:27:20.335Z,83.21
2022-08-30T04:29:47.642Z,83.34
2022-08-30T04:32:14.624Z,82.99
2022-08-30T04:34:41.068Z,83.27
2022-08-30T04:37:09.826Z,83.59
2022-08-30T04:39:36.456Z,83.35
2022-08-30T04:42:03.374Z,83.21
2022-08-30T04:44:32.000Z,83.12
2022-08-30T04:46:59.068Z,83.13
2022-08-30T04:49:25.449Z,83.32
2022-08-30T04:51:51.820Z,83.54
2022-08-30T04:54:18.227Z,83.37
2022-08-30T04:56:44.653Z,83.28
2022-08-30T04:59:11.109Z,83.36
2022-08-30T05:01:45.498Z,83.46
2022-08-30T05:04:13.787Z,83.86
2022-08-30T05:06:40.273Z,84.24
2022-08-30T05:09:06.827Z,84.25
2022-08-30T05:11:33.220Z,84.20
2022-08-30T05:13:59.614Z,84.31
2022-08-30T05:16:26.371Z,84.47
2022-08-30T05:18:53.646Z,84.22
2022-08-30T05:21:23.194Z,84.03
2022-08-30T05:23:50.393Z,84.10
2022-08-30T05:26:28.789Z,84.26
2022-08-30T05:28:55.722Z,84.30
2022-08-30T05:31:29.347Z,84.48
2022-08-30T05:33:55.998Z,84.07
2022-08-30T05:36:25.272Z,84.09
2022-08-30T05:38:52.573Z,83.81
2022-08-30T05:41:20.473Z,84.00
2022-08-30T05:43:48.476Z,83.68
2022-08-30T05:46:19.598Z,83.80
2022-08-30T05:48:46.881Z,83.70
2022-08-30T05:51:17.422Z,83.76
2022-08-30T05:53:44.803Z,84.34
2022-08-30T05:56:17.218Z,83.76
2022-08-30T05:58:44.217Z,79.88
2022-08-30T06:01:24.847Z,76.01
2022-08-30T06:03:52.321Z,73.77
2022-08-30T06:06:19.043Z,72.72
2022-08-30T06:08:47.276Z,74.14
2022-08-30T06:11:15.427Z,75.79
2022-08-30T06:13:41.861Z,76.79
2022-08-30T06:16:10.812Z,77.61
2022-08-30T06:18:37.241Z,78.04
2022-08-30T06:21:03.746Z,78.80
2022-08-30T06:23:30.594Z,75.44
2022-08-30T06:26:02.949Z,72.69
2022-08-30T06:28:29.556Z,72.93
2022-08-30T06:30:56.009Z,74.31
2022-08-30T06:33:22.388Z,74.93
2022-08-30T06:35:59.157Z,75.52
2022-08-30T06:38:26.767Z,75.80
2022-08-30T06:40:53.144Z,75.90
2022-08-30T06:43:20.772Z,75.98
2022-08-30T06:45:47.163Z,76.22
2022-08-30T06:48:13.613Z,76.00
2022-08-30T06:50:41.917Z,75.54
2022-08-30T06:53:09.810Z,75.53
2022-08-30T06:55:36.581Z,74.83
2022-08-30T06:58:04.120Z,74.39
2022-08-30T07:00:31.029Z,74.45
2022-08-30T07:02:58.094Z,73.81
2022-08-30T07:05:24.574Z,73.64
2022-08-30T07:07:54.374Z,73.26
2022-08-30T07:10:21.641Z,72.00
2022-08-30T07:12:48.810Z,72.26
2022-08-30T07:15:16.094Z,71.83
2022-08-30T07:18:01.124Z,71.43
2022-08-30T07:20:27.623Z,71.01
2022-08-30T07:23:06.563Z,70.17
2022-08-30T07:25:33.208Z,69.28
2022-08-30T07:27:59.561Z,68.61
2022-08-30T07:30:25.997Z,68.36
2022-08-30T07:32:52.397Z,67.92
2022-08-30T07:35:18.841Z,66.88
2022-08-30T07:37:45.615Z,66.43
2022-08-30T07:40:12.568Z,66.35
2022-08-30T07:42:40.896Z,65.42
2022-08-30T07:45:08.464Z,65.31
2022-08-30T07:47:34.825Z,64.03
2022-08-30T07:50:01.358Z,63.38
2022-08-30T07:52:28.271Z,62.36
2022-08-30T07:54:57.969Z,61.51
2022-08-30T07:57:25.490Z,60.84
2022-08-30T07:59:52.328Z,61.10
2022-08-30T08:02:19.279Z,59.73
2022-08-30T08:04:48.444Z,58.77
2022-08-30T08:07:15.153Z,58.81
2022-08-30T08:09:41.815Z,57.97
2022-08-30T08:12:08.297Z,56.58
2022-08-30T08:14:35.500Z,55.05
2022-08-30T08:17:02.395Z,54.47
2022-08-30T08:19:28.752Z,54.89
2022-08-30T08:22:19.626Z,53.31
2022-08-30T08:24:43.243Z,53.69
2022-08-30T08:27:09.653Z,54.36
2022-08-30T08:29:36.078Z,53.86
2022-08-30T08:32:02.689Z,51.45
2022-08-30T08:34:29.063Z,52.59
2022-08-30T08:36:55.471Z,53.24
2022-08-30T08:39:21.827Z,52.11
2022-08-30T08:41:55.227Z,50.96
2022-08-30T08:45:10.754Z,51.45
2022-08-30T08:47:44.909Z,50.69
2022-08-30T08:50:19.557Z,51.21
2022-08-30T08:53:50.163Z,50.92
2022-08-30T08:56:19.209Z,48.79
2022-08-30T08:58:49.708Z,48.91
2022-08-30T09:01:21.500Z,47.62
2022-08-30T09:03:49.205Z,48.23
2022-08-30T09:06:45.399Z,48.98
2022-08-30T09:09:12.569Z,48.79
2022-08-30T09:11:40.831Z,47.31
2022-08-30T09:14:14.141Z,47.58
2022-08-30T09:16:57.879Z,47.84
2022-08-30T09:19:41.183Z,48.23
2022-08-30T09:22:29.119Z,46.63
2022-08-30T09:25:07.916Z,45.46
2022-08-30T09:27:55.894Z,45.32
2022-08-30T09:30:28.371Z,44.97
2022-08-30T09:32:56.234Z,44.23
2022-08-30T09:35:34.480Z,45.43
2022-08-30T09:38:07.325Z,44.26
2022-08-30T09:40:40.158Z,43.66
2022-08-30T09:43:34.496Z,43.75
2022-08-30T09:46:00.938Z,43.92
2022-08-30T09:48:32.810Z,42.80
2022-08-30T09:51:13.460Z,42.37
2022-08-30T09:54:18.959Z,44.38
2022-08-30T09:57:13.244Z,42.62
2022-08-30T10:00:07.646Z,42.71
2022-08-30T10:02:41.187Z,40.88
2022-08-30T10:05:27.784Z,41.75
2022-08-30T10:08:09.267Z,42.31
2022-08-30T10:10:52.625Z,41.82
2022-08-30T10:13:57.861Z,42.20
2022-08-30T10:16:55.373Z,41.81
2022-08-30T10:19:21.657Z,40.51
2022-08-30T10:22:01.134Z,40.79
2022-08-30T10:24:46.483Z,41.21
2022-08-30T10:27:28.923Z,41.93
2022-08-30T10:30:07.294Z,41.31
2022-08-30T10:33:18.002Z,40.59
2022-08-30T10:35:53.042Z,40.23
2022-08-30T10:38:39.821Z,39.99
2022-08-30T10:41:32.747Z,37.91
2022-08-30T10:44:18.888Z,38.16
2022-08-30T10:46:54.236Z,37.29
2022-08-30T10:49:27.406Z,37.58
2022-08-30T10:52:19.838Z,38.45
2022-08-30T10:55:06.122Z,36.75
2022-08-30T10:57:32.746Z,36.96
2022-08-30T11:00:07.605Z,37.20
2022-08-30T11:03:07.730Z,37.21
2022-08-30T11:05:59.068Z,37.35
2022-08-30T11:08:49.424Z,35.92
2022-08-30T11:11:37.178Z,36.19
2022-08-30T11:14:11.073Z,37.19
2022-08-30T11:16:41.109Z,36.10
2022-08-30T11:19:34.738Z,36.39
2022-08-30T11:22:21.191Z,34.54
2022-08-30T11:25:11.536Z,35.54
2022-08-30T11:27:46.446Z,34.58
2022-08-30T11:30:32.721Z,34.77
2022-08-30T11:33:09.429Z,34.97
2022-08-30T11:35:52.313Z,34.63
2022-08-30T11:38:28.175Z,33.16
2022-08-30T11:40:54.508Z,33.70
2022-08-30T11:43:32.819Z,32.59
2022-08-30T11:46:34.625Z,33.87
2022-08-30T11:49:35.998Z,34.32
2022-08-30T11:52:37.840Z,33.71
2022-08-30T11:55:16.700Z,32.84
2022-08-30T11:58:10.328Z,31.92
2022-08-30T12:00:41.661Z,33.92
2022-08-30T12:03:14.311Z,33.51
2022-08-30T12:05:40.960Z,32.26
2022-08-30T12:08:09.934Z,33.29
2022-08-30T12:10:43.945Z,33.30
2022-08-30T12:13:31.016Z,32.49
2022-08-30T12:16:09.470Z,32.08
2022-08-30T12:18:39.064Z,30.64
2022-08-30T12:21:19.695Z,32.91
2022-08-30T12:23:56.888Z,31.82
2022-08-30T12:26:26.355Z,30.62
2022-08-30T12:29:07.896Z,33.13
2022-08-30T12:31:44.356Z,32.76
2022-08-30T12:34:20.189Z,32.24
2022-08-30T12:36:55.539Z,31.55
2022-08-30T12:39:26.104Z,31.95
2022-08-30T12:41:54.068Z,30.35
2022-08-30T12:44:26.873Z,30.72
2022-08-30T12:46:59.781Z,30.72
2022-08-30T12:49:30.040Z,31.61
2022-08-30T12:52:15.761Z,32.34
2022-08-30T12:54:42.508Z,33.76
2022-08-30T12:57:25.526Z,33.08
2022-08-30T12:59:59.516Z,33.34
2022-08-30T13:02:43.452Z,33.04
2022-08-30T13:05:29.988Z,33.04
2022-08-30T13:08:39.555Z,33.16
2022-08-30T13:11:22.624Z,33.09
2022-08-30T13:13:53.051Z,33.09
2022-08-30T13:16:22.190Z,32.34
2022-08-30T13:19:12.820Z,32.94
2022-08-30T13:21:51.157Z,32.38
2022-08-30T13:24:17.504Z,32.41
2022-08-30T13:26:45.072Z,32.82
2022-08-30T13:29:21.954Z,32.53
2022-08-30T13:31:49.621Z,32.09
2022-08-30T13:34:18.890Z,32.27
2022-08-30T13:36:48.228Z,32.54
2022-08-30T13:39:14.609Z,31.63
2022-08-30T13:41:40.971Z,32.76
2022-08-30T13:44:12.082Z,32.76
2022-08-30T13:46:42.083Z,32.16
2022-08-30T13:52:19.792Z,31.11
2022-08-30T13:54:47.322Z,32.17
2022-08-30T13:57:53.667Z,31.77
2022-08-30T14:00:08.737Z,32.38
2022-08-30T14:02:42.897Z,31.00
2022-08-30T14:05:30.806Z,32.43
2022-08-30T14:07:59.464Z,32.91
2022-08-30T14:10:30.813Z,31.68
2022-08-30T14:13:06.999Z,31.80
2022-08-30T14:15:35.109Z,32.36
2022-08-30T14:18:06.710Z,31.26
2022-08-30T14:20:35.339Z,31.75
2022-08-30T14:23:09.929Z,31.00
2022-08-30T14:25:37.072Z,31.78
2022-08-30T14:28:03.614Z,31.13
2022-08-30T14:30:29.969Z,31.63
2022-08-30T14:32:56.364Z,31.84
2022-08-30T14:35:22.754Z,32.12
2022-08-30T14:37:50.750Z,31.91
2022-08-30T14:40:18.487Z,32.30
2022-08-30T14:42:45.144Z,32.17
2022-08-30T14:45:11.841Z,31.51
2022-08-30T14:47:38.640Z,32.51
2022-08-30T14:50:06.077Z,32.46
2022-08-30T14:52:32.911Z,32.57
2022-08-30T14:55:05.226Z,32.04
2022-08-30T14:57:35.869Z,33.38
2022-08-30T15:00:07.544Z,33.30
2022-08-30T15:02:33.931Z,33.31
2022-08-30T15:05:00.277Z,32.91
2022-08-30T15:07:26.709Z,33.01
2022-08-30T15:09:53.069Z,32.99
2022-08-30T15:12:19.515Z,33.46
2022-08-30T15:14:46.260Z,34.28
2022-08-30T15:17:12.977Z,33.87
2022-08-30T15:19:39.735Z,33.92
2022-08-30T15:22:06.945Z,34.64
2022-08-30T15:24:35.058Z,35.07
2022-08-30T15:27:02.421Z,35.50
2022-08-30T15:29:30.698Z,35.64
2022-08-30T15:31:58.595Z,34.79
2022-08-30T15:34:27.896Z,35.80
2022-08-30T15:36:55.131Z,35.09
2022-08-30T15:39:21.511Z,35.03
2022-08-30T15:41:55.662Z,36.13
2022-08-30T15:44:23.617Z,35.62
2022-08-30T15:46:50.058Z,35.21
2022-08-30T15:49:19.708Z,35.21
2022-08-30T15:51:49.336Z,36.25
2022-08-30T15:54:20.703Z,36.59
2022-08-30T15:56:48.163Z,36.63
2022-08-30T15:59:18.674Z,35.97
2022-08-30T16:01:45.324Z,36.34
2022-08-30T16:04:14.410Z,36.34
2022-08-30T16:06:41.800Z,36.34
2022-08-30T16:09:09.194Z,36.63
2022-08-30T16:11:37.096Z,36.04
2022-08-30T16:14:04.932Z,35.89
2022-08-30T16:16:31.751Z,35.62
2022-08-30T16:18:58.718Z,36.07
2022-08-30T16:21:30.852Z,36.15
2022-08-30T16:24:00.986Z,36.28
2022-08-30T16:26:29.228Z,36.57
2022-08-30T16:28:56.041Z,36.44
2022-08-30T16:31:23.278Z,36.43
2022-08-30T16:33:52.460Z,36.23
2022-08-30T16:36:20.172Z,36.40
2022-08-30T16:38:47.776Z,36.46
2022-08-30T16:41:21.052Z,36.59
2022-08-30T16:43:49.554Z,37.10
2022-08-30T16:46:17.787Z,37.24
2022-08-30T16:48:46.195Z,37.07
2022-08-30T16:51:20.772Z,37.10
2022-08-30T16:53:47.875Z,37.54
2022-08-30T16:56:18.151Z,37.24
2022-08-30T16:58:45.700Z,37.57
2022-08-30T17:01:12.646Z,37.74
2022-08-30T17:03:40.081Z,38.66
2022-08-30T17:06:08.011Z,38.57
2022-08-30T17:08:34.768Z,38.98
2022-08-30T17:11:01.413Z,38.61
2022-08-30T17:13:28.385Z,38.63
2022-08-30T17:15:55.844Z,39.15
2022-08-30T17:18:22.563Z,39.67
2022-08-30T17:20:49.092Z,40.26
2022-08-30T17:23:15.571Z,40.15
2022-08-30T17:25:43.323Z,40.38
2022-08-30T17:28:10.493Z,40.32
2022-08-30T17:30:37.586Z,40.39
2022-08-30T17:33:04.321Z,40.66
2022-08-30T17:35:30.993Z,41.18
2022-08-30T17:37:57.576Z,41.91
2022-08-30T17:40:23.952Z,41.35
2022-08-30T17:42:51.030Z,42.00
2022-08-30T17:45:18.570Z,41.83
2022-08-30T17:47:45.320Z,41.77
2022-08-30T17:50:14.043Z,42.61
2022-08-30T17:52:41.526Z,42.82
2022-08-30T17:55:09.308Z,43.02
2022-08-30T17:57:36.776Z,43.46
2022-08-30T18:00:07.288Z,43.91
2022-08-30T18:02:34.423Z,44.41
2022-08-30T18:05:00.872Z,44.37
2022-08-30T18:07:27.287Z,45.13
2022-08-30T18:09:53.662Z,45.05
2022-08-30T18:12:22.190Z,44.81
2022-08-30T18:14:52.570Z,45.42
2022-08-30T18:17:19.552Z,45.55
2022-08-30T18:19:46.836Z,45.92
2022-08-30T18:22:14.014Z,45.99
2022-08-30T18:24:40.577Z,46.08
2022-08-30T18:27:07.292Z,46.51
2022-08-30T18:29:33.825Z,46.76
2022-08-30T18:32:01.849Z,47.24
2022-08-30T18:34:29.547Z,47.37
2022-08-30T18:36:56.254Z,47.33
2022-08-30T18:39:22.665Z,47.72
2022-08-30T18:41:50.640Z,47.72
2022-08-30T18:44:27.814Z,47.84
2022-08-30T18:46:57.253Z,48.12
2022-08-30T18:49:25.003Z,48.36
2022-08-30T18:51:51.388Z,48.67
2022-08-30T18:54:18.399Z,48.45
2022-08-30T18:56:45.567Z,48.83
2022-08-30T18:59:12.764Z,49.06
2022-08-30T19:01:39.483Z,49.29
2022-08-30T19:04:07.712Z,49.52
2022-08-30T19:06:34.656Z,49.87
2022-08-30T19:09:04.095Z,50.22
2022-08-30T19:11:36.055Z,50.58
2022-08-30T19:14:05.275Z,50.78
2022-08-30T19:16:34.493Z,50.90
2022-08-30T19:19:02.703Z,51.57
2022-08-30T19:21:29.343Z,51.91
2022-08-30T19:23:55.719Z,51.97
2022-08-30T19:26:22.266Z,52.20
2022-08-30T19:28:48.619Z,52.60
2022-08-30T19:31:15.013Z,52.59
2022-08-30T19:33:41.390Z,52.90
2022-08-30T19:36:08.195Z,53.46
2022-08-30T19:38:35.872Z,53.91
2022-08-30T19:41:02.968Z,54.13
2022-08-30T19:43:30.583Z,54.11
2022-08-30T19:45:59.360Z,54.26
2022-08-30T19:48:32.254Z,54.78
2022-08-30T19:51:06.451Z,54.87
2022-08-30T19:53:33.387Z,54.91
2022-08-30T19:56:00.153Z,55.25
2022-08-30T19:58:26.835Z,55.52
2022-08-30T20:00:57.967Z,55.68
2022-08-30T20:03:38.067Z,55.56
2022-08-30T20:06:07.209Z,55.90
2022-08-30T20:08:33.744Z,56.40
2022-08-30T20:11:00.398Z,57.10
2022-08-30T20:13:27.959Z,57.13
2022-08-30T20:15:56.619Z,57.54
2022-08-30T20:18:25.890Z,57.96
2022-08-30T20:20:53.272Z,58.22
2022-08-30T20:23:21.839Z,58.51
2022-08-30T20:25:52.234Z,58.75
2022-08-30T20:28:20.495Z,59.12
2022-08-30T20:30:47.683Z,59.63
2022-08-30T20:33:14.054Z,60.12
2022-08-30T20:35:46.917Z,60.36
2022-08-30T20:38:21.128Z,60.53
2022-08-30T20:40:56.422Z,60.94
2022-08-30T20:43:26.186Z,61.12
2022-08-30T20:45:53.561Z,61.06
2022-08-30T20:48:20.433Z,61.10
2022-08-30T20:50:47.208Z,61.79
2022-08-30T20:53:15.333Z,61.75
2022-08-30T20:55:46.681Z,62.23
2022-08-30T20:58:14.289Z,62.52
2022-08-30T21:00:40.992Z,62.46
2022-08-30T21:03:26.073Z,62.83
2022-08-30T21:05:55.035Z,62.39
2022-08-30T21:08:21.423Z,62.79
2022-08-30T21:10:47.849Z,63.41
2022-08-30T21:13:14.227Z,63.14
2022-08-30T21:15:45.590Z,63.53
2022-08-30T21:18:13.580Z,63.60
2022-08-30T21:20:39.960Z,63.92
2022-08-30T21:23:06.687Z,64.05
2022-08-30T21:25:34.008Z,64.15
2022-08-30T21:28:00.365Z,64.16
2022-08-30T21:30:26.836Z,64.39
2022-08-30T21:32:53.437Z,64.38
2022-08-30T21:35:38.886Z,64.49
2022-08-30T21:38:07.388Z,64.57
2022-08-30T21:40:33.786Z,64.54
2022-08-30T21:43:03.779Z,64.76
2022-08-30T21:45:32.157Z,64.75
2022-08-30T21:47:58.502Z,64.85
2022-08-30T21:50:24.852Z,65.12
2022-08-30T21:52:51.822Z,64.75
2022-08-30T21:55:18.976Z,64.90
2022-08-30T21:57:45.536Z,64.66
2022-08-30T22:00:18.691Z,65.15
2022-08-30T22:02:45.475Z,64.94
2022-08-30T22:05:15.759Z,65.13
2022-08-30T22:07:42.185Z,64.95
2022-08-30T22:10:10.839Z,65.25
2022-08-30T22:12:38.312Z,65.28
2022-08-30T22:15:09.204Z,64.96
2022-08-30T22:17:35.617Z,64.99
2022-08-30T22:20:02.145Z,65.13
2022-08-30T22:22:28.909Z,65.37
2022-08-30T22:24:55.265Z,65.54
2022-08-30T22:27:21.637Z,65.37
2022-08-30T22:29:48.067Z,65.13
2022-08-30T22:32:14.510Z,65.51
2022-08-30T22:34:40.923Z,65.59
2022-08-30T22:37:07.854Z,65.49
2022-08-30T22:39:34.286Z,65.72
2022-08-30T22:42:00.659Z,65.96
2022-08-30T22:44:27.101Z,65.58
2022-08-30T22:46:53.472Z,65.52
2022-08-30T22:49:20.373Z,65.53
2022-08-30T22:51:46.885Z,65.57
2022-08-30T22:54:13.243Z,65.79
2022-08-30T22:56:39.938Z,65.58
2022-08-30T22:59:07.176Z,65.82
2022-08-30T23:01:37.899Z,65.63
2022-08-30T23:04:06.892Z,65.54
2022-08-30T23:06:33.971Z,65.64
2022-08-30T23:09:00.481Z,66.00
2022-08-30T23:11:27.177Z,65.62
2022-08-30T23:13:54.164Z,66.01
2022-08-30T23:16:21.538Z,65.95
2022-08-30T23:18:48.683Z,66.12
2022-08-30T23:21:18.535Z,66.13
2022-08-30T23:24:03.595Z,66.46
2022-08-30T23:26:48.932Z,66.39
2022-08-30T23:29:34.717Z,66.41
2022-08-30T23:32:20.768Z,66.10
2022-08-30T23:35:05.965Z,66.74
2022-08-30T23:37:53.008Z,66.63
2022-08-30T23:40:39.049Z,66.56
2022-08-30T23:43:24.618Z,66.37
2022-08-30T23:46:09.475Z,66.63
2022-08-30T23:48:54.603Z,66.75
2022-08-30T23:51:39.241Z,67.03
2022-08-30T23:54:25.060Z,67.12
2022-08-30T23:57:10.308Z,67.39
2022-08-30T23:59:55.551Z,67.19
